SWR78Y LEVC-LSZH
Flight info
| Callsign | SWR78Y |
|---|---|
| Flight time | N/A |
| Altitude | 36000 |
| Route | SOPET5B SOPET M985 EBROX DCT PEXOT M985 BCN N870 DALIN DCT PIVUS DCT DIBER DCT ADITA DCT MAXIR DCT LUSOL DCT BODRU DCT OKTET DCT IRMAR/N0459F320 DCT KINES DCT VANAS DCT MOBLO DCT UBIMA DCT SOSAL DCT KORED/N0438F260 N871 BERSU BERSU2G |
| Aircraft | A320/M-SDE3FGHIRWY/LB1 |
Departure
| Time | 2026-04-30 12:55 |
|---|---|
| Airport | Valencia Airport (LEVC) |
Arrival
| Time | N/A |
|---|---|
| Airport | Zürich Airport (LSZH) |
| Time | Latitude | Longitude | Altitude | Speed | Heading |
|---|---|---|---|---|---|
| 2026-04-30 12:32 | 39.49067 | -0.47439 | 209 ft | 0 kts | 39° |
| 2026-04-30 12:49 | 39.49050 | -0.47457 | 211 ft | 4 kts | 35° |
| 2026-04-30 12:49 | 39.49027 | -0.47474 | 212 ft | 4 kts | 20° |
| 2026-04-30 12:49 | 39.49004 | -0.47479 | 214 ft | 4 kts | 327° |
| 2026-04-30 12:50 | 39.48997 | -0.47472 | 212 ft | 0 kts | 295° |
| 2026-04-30 12:51 | 39.49006 | -0.47496 | 213 ft | 6 kts | 295° |
| 2026-04-30 12:51 | 39.49032 | -0.47568 | 214 ft | 12 kts | 295° |
| 2026-04-30 12:51 | 39.49056 | -0.47689 | 209 ft | 17 kts | 259° |
| 2026-04-30 12:52 | 39.49029 | -0.47860 | 209 ft | 22 kts | 273° |
| 2026-04-30 12:52 | 39.49093 | -0.48064 | 217 ft | 27 kts | 295° |
| 2026-04-30 12:52 | 39.49183 | -0.48303 | 214 ft | 31 kts | 296° |
| 2026-04-30 12:52 | 39.49283 | -0.48558 | 209 ft | 32 kts | 296° |
| 2026-04-30 12:53 | 39.49385 | -0.48827 | 214 ft | 34 kts | 296° |
| 2026-04-30 12:53 | 39.49492 | -0.49108 | 209 ft | 35 kts | 296° |
| 2026-04-30 12:53 | 39.49602 | -0.49396 | 212 ft | 37 kts | 296° |
| 2026-04-30 12:53 | 39.49716 | -0.49693 | 213 ft | 37 kts | 296° |
| 2026-04-30 12:54 | 39.49809 | -0.49978 | 209 ft | 27 kts | 290° |
| 2026-04-30 12:54 | 39.49721 | -0.50072 | 216 ft | 20 kts | 161° |
| 2026-04-30 12:54 | 39.49618 | -0.49964 | 213 ft | 18 kts | 117° |
| 2026-04-30 12:54 | 39.49610 | -0.49943 | 217 ft | 4 kts | 112° |
| 2026-04-30 12:55 | 39.49496 | -0.49631 | 210 ft | 77 kts | 116° |
| 2026-04-30 12:55 | 39.49165 | -0.48762 | 213 ft | 135 kts | 116° |
| 2026-04-30 12:55 | 39.48691 | -0.47550 | 572 ft | 154 kts | 116° |
| 2026-04-30 12:55 | 39.48164 | -0.46324 | 1267 ft | 157 kts | 116° |
| 2026-04-30 12:56 | 39.47640 | -0.45068 | 2032 ft | 159 kts | 116° |
| 2026-04-30 12:56 | 39.47080 | -0.43726 | 2432 ft | 182 kts | 121° |
| 2026-04-30 12:56 | 39.46316 | -0.42297 | 2797 ft | 205 kts | 127° |
| 2026-04-30 12:56 | 39.45381 | -0.40758 | 3216 ft | 230 kts | 128° |
| 2026-04-30 12:57 | 39.44324 | -0.39062 | 3681 ft | 254 kts | 129° |
| 2026-04-30 12:57 | 39.43181 | -0.37220 | 4352 ft | 268 kts | 129° |
| 2026-04-30 12:57 | 39.42005 | -0.35309 | 5269 ft | 275 kts | 129° |
| 2026-04-30 12:57 | 39.40805 | -0.33339 | 5798 ft | 280 kts | 129° |
| 2026-04-30 12:58 | 39.39849 | -0.31130 | 6620 ft | 288 kts | 105° |
| 2026-04-30 12:58 | 39.39879 | -0.28550 | 7497 ft | 293 kts | 72° |
| 2026-04-30 12:58 | 39.40962 | -0.26330 | 8302 ft | 297 kts | 39° |
| 2026-04-30 12:58 | 39.42784 | -0.25135 | 9128 ft | 296 kts | 10° |
| 2026-04-30 12:59 | 39.44805 | -0.24711 | 10026 ft | 298 kts | 3° |
| 2026-04-30 12:59 | 39.46921 | -0.24470 | 10509 ft | 316 kts | 1° |
| 2026-04-30 12:59 | 39.49193 | -0.24242 | 10778 ft | 339 kts | 2° |
| 2026-04-30 12:59 | 39.51624 | -0.23940 | 11013 ft | 362 kts | 4° |
| 2026-04-30 13:00 | 39.54166 | -0.23536 | 11562 ft | 372 kts | 5° |